sensor_id;sensor_type;location;lat;lon;timestamp;temperature;humidity
72602;DHT22;60644;55.858;37.390;2022-12-24T00:01:13;3.25;80.47
72602;DHT22;60644;55.858;37.390;2022-12-24T00:03:39;3.32;80.40
72602;DHT22;60644;55.858;37.390;2022-12-24T00:06:05;3.32;80.25
72602;DHT22;60644;55.858;37.390;2022-12-24T00:08:32;3.30;80.16
72602;DHT22;60644;55.858;37.390;2022-12-24T00:10:58;3.30;80.23
72602;DHT22;60644;55.858;37.390;2022-12-24T00:13:24;3.30;80.27
72602;DHT22;60644;55.858;37.390;2022-12-24T00:15:50;3.27;80.34
72602;DHT22;60644;55.858;37.390;2022-12-24T00:18:16;3.29;80.34
72602;DHT22;60644;55.858;37.390;2022-12-24T00:20:47;3.31;80.30
72602;DHT22;60644;55.858;37.390;2022-12-24T00:23:13;3.31;80.16
72602;DHT22;60644;55.858;37.390;2022-12-24T00:25:39;3.31;80.33
72602;DHT22;60644;55.858;37.390;2022-12-24T00:28:05;3.33;80.20
72602;DHT22;60644;55.858;37.390;2022-12-24T00:30:31;3.30;80.30
72602;DHT22;60644;55.858;37.390;2022-12-24T00:32:57;3.31;80.27
72602;DHT22;60644;55.858;37.390;2022-12-24T00:35:23;3.25;80.54
72602;DHT22;60644;55.858;37.390;2022-12-24T00:37:50;3.16;80.79
72602;DHT22;60644;55.858;37.390;2022-12-24T00:40:17;3.20;80.81
72602;DHT22;60644;55.858;37.390;2022-12-24T00:42:43;3.25;80.70
72602;DHT22;60644;55.858;37.390;2022-12-24T00:45:09;3.25;80.53
72602;DHT22;60644;55.858;37.390;2022-12-24T00:47:35;3.23;80.57
72602;DHT22;60644;55.858;37.390;2022-12-24T00:50:01;3.20;80.78
72602;DHT22;60644;55.858;37.390;2022-12-24T00:52:28;3.16;80.89
72602;DHT22;60644;55.858;37.390;2022-12-24T00:54:54;3.14;81.07
72602;DHT22;60644;55.858;37.390;2022-12-24T00:57:20;3.16;81.01
72602;DHT22;60644;55.858;37.390;2022-12-24T00:59:46;3.18;80.99
72602;DHT22;60644;55.858;37.390;2022-12-24T01:02:11;3.21;80.85
72602;DHT22;60644;55.858;37.390;2022-12-24T01:04:37;3.23;80.95
72602;DHT22;60644;55.858;37.390;2022-12-24T01:07:21;3.20;81.01
72602;DHT22;60644;55.858;37.390;2022-12-24T01:09:47;3.18;81.12
72602;DHT22;60644;55.858;37.390;2022-12-24T01:12:13;3.16;81.22
72602;DHT22;60644;55.858;37.390;2022-12-24T01:14:39;3.12;81.54
72602;DHT22;60644;55.858;37.390;2022-12-24T01:17:05;3.15;81.51
72602;DHT22;60644;55.858;37.390;2022-12-24T01:19:30;3.13;81.64
72602;DHT22;60644;55.858;37.390;2022-12-24T01:21:57;3.08;81.80
72602;DHT22;60644;55.858;37.390;2022-12-24T01:24:23;3.10;81.85
72602;DHT22;60644;55.858;37.390;2022-12-24T01:26:48;3.09;81.85
72602;DHT22;60644;55.858;37.390;2022-12-24T01:29:14;3.04;82.18
72602;DHT22;60644;55.858;37.390;2022-12-24T01:31:40;3.06;82.10
72602;DHT22;60644;55.858;37.390;2022-12-24T01:34:06;3.08;82.02
72602;DHT22;60644;55.858;37.390;2022-12-24T01:36:32;3.04;82.17
72602;DHT22;60644;55.858;37.390;2022-12-24T01:38:58;3.05;82.17
72602;DHT22;60644;55.858;37.390;2022-12-24T01:41:25;3.04;82.16
72602;DHT22;60644;55.858;37.390;2022-12-24T01:44:30;3.01;82.13
72602;DHT22;60644;55.858;37.390;2022-12-24T01:47:19;3.01;82.23
72602;DHT22;60644;55.858;37.390;2022-12-24T01:50:14;3.05;82.16
72602;DHT22;60644;55.858;37.390;2022-12-24T01:52:41;3.08;82.07
72602;DHT22;60644;55.858;37.390;2022-12-24T01:55:13;3.14;81.97
72602;DHT22;60644;55.858;37.390;2022-12-24T01:57:54;3.14;81.70
72602;DHT22;60644;55.858;37.390;2022-12-24T02:00:21;3.13;81.82
72602;DHT22;60644;55.858;37.390;2022-12-24T02:02:49;3.10;81.84
72602;DHT22;60644;55.858;37.390;2022-12-24T02:07:49;3.16;81.68
72602;DHT22;60644;55.858;37.390;2022-12-24T02:10:15;3.17;81.59
72602;DHT22;60644;55.858;37.390;2022-12-24T02:12:42;3.14;81.68
72602;DHT22;60644;55.858;37.390;2022-12-24T02:15:11;3.17;81.68
72602;DHT22;60644;55.858;37.390;2022-12-24T02:26:22;3.10;81.78
72602;DHT22;60644;55.858;37.390;2022-12-24T02:34:29;2.96;82.57
72602;DHT22;60644;55.858;37.390;2022-12-24T02:37:03;2.99;82.45
72602;DHT22;60644;55.858;37.390;2022-12-24T02:39:40;2.96;82.52
72602;DHT22;60644;55.858;37.390;2022-12-24T02:42:10;3.01;82.39
72602;DHT22;60644;55.858;37.390;2022-12-24T02:44:46;2.99;82.51
72602;DHT22;60644;55.858;37.390;2022-12-24T02:47:14;3.00;82.59
72602;DHT22;60644;55.858;37.390;2022-12-24T02:49:46;2.99;82.49
72602;DHT22;60644;55.858;37.390;2022-12-24T02:52:38;3.01;82.42
72602;DHT22;60644;55.858;37.390;2022-12-24T02:55:09;3.06;82.36
72602;DHT22;60644;55.858;37.390;2022-12-24T03:00:44;3.18;82.07
72602;DHT22;60644;55.858;37.390;2022-12-24T03:06:45;3.20;81.48
72602;DHT22;60644;55.858;37.390;2022-12-24T03:12:11;3.19;81.53
72602;DHT22;60644;55.858;37.390;2022-12-24T03:14:39;3.19;81.43
72602;DHT22;60644;55.858;37.390;2022-12-24T03:17:06;3.17;81.48
72602;DHT22;60644;55.858;37.390;2022-12-24T03:19:33;3.17;81.37
72602;DHT22;60644;55.858;37.390;2022-12-24T03:22:01;3.16;81.46
72602;DHT22;60644;55.858;37.390;2022-12-24T03:24:28;3.23;81.38
72602;DHT22;60644;55.858;37.390;2022-12-24T03:26:55;3.26;81.05
72602;DHT22;60644;55.858;37.390;2022-12-24T03:29:21;3.20;81.15
72602;DHT22;60644;55.858;37.390;2022-12-24T03:31:49;3.19;81.28
72602;DHT22;60644;55.858;37.390;2022-12-24T03:34:16;3.19;81.30
72602;DHT22;60644;55.858;37.390;2022-12-24T03:36:43;3.23;81.26
72602;DHT22;60644;55.858;37.390;2022-12-24T03:39:10;3.28;81.20
72602;DHT22;60644;55.858;37.390;2022-12-24T03:41:36;3.30;81.10
72602;DHT22;60644;55.858;37.390;2022-12-24T03:44:03;3.32;81.10
72602;DHT22;60644;55.858;37.390;2022-12-24T03:46:28;3.36;81.10
72602;DHT22;60644;55.858;37.390;2022-12-24T03:48:54;3.33;81.11
72602;DHT22;60644;55.858;37.390;2022-12-24T03:51:22;3.28;81.12
72602;DHT22;60644;55.858;37.390;2022-12-24T03:53:51;3.24;81.09
72602;DHT22;60644;55.858;37.390;2022-12-24T03:56:16;3.19;81.17
72602;DHT22;60644;55.858;37.390;2022-12-24T03:58:42;3.15;81.31
72602;DHT22;60644;55.858;37.390;2022-12-24T04:01:08;3.18;81.28
72602;DHT22;60644;55.858;37.390;2022-12-24T04:03:34;3.18;81.33
72602;DHT22;60644;55.858;37.390;2022-12-24T04:06:11;3.16;81.40
72602;DHT22;60644;55.858;37.390;2022-12-24T04:08:38;3.20;81.30
72602;DHT22;60644;55.858;37.390;2022-12-24T04:11:06;3.18;81.30
72602;DHT22;60644;55.858;37.390;2022-12-24T04:13:32;3.18;81.30
72602;DHT22;60644;55.858;37.390;2022-12-24T04:16:09;3.20;81.36
72602;DHT22;60644;55.858;37.390;2022-12-24T04:18:35;3.14;81.40
72602;DHT22;60644;55.858;37.390;2022-12-24T04:21:01;3.16;81.39
72602;DHT22;60644;55.858;37.390;2022-12-24T04:23:30;3.17;81.33
72602;DHT22;60644;55.858;37.390;2022-12-24T04:25:59;3.14;81.33
72602;DHT22;60644;55.858;37.390;2022-12-24T04:28:24;3.13;81.29
72602;DHT22;60644;55.858;37.390;2022-12-24T04:30:50;3.11;81.30
72602;DHT22;60644;55.858;37.390;2022-12-24T04:33:16;3.08;81.37
72602;DHT22;60644;55.858;37.390;2022-12-24T04:35:44;3.09;81.32
72602;DHT22;60644;55.858;37.390;2022-12-24T04:38:10;3.09;81.36
72602;DHT22;60644;55.858;37.390;2022-12-24T04:40:36;3.08;81.37
72602;DHT22;60644;55.858;37.390;2022-12-24T04:43:02;3.02;81.47
72602;DHT22;60644;55.858;37.390;2022-12-24T04:45:27;3.04;81.42
72602;DHT22;60644;55.858;37.390;2022-12-24T04:47:53;3.01;81.39
72602;DHT22;60644;55.858;37.390;2022-12-24T04:50:19;3.00;81.46
72602;DHT22;60644;55.858;37.390;2022-12-24T04:52:45;2.98;81.49
72602;DHT22;60644;55.858;37.390;2022-12-24T04:55:11;2.98;81.57
72602;DHT22;60644;55.858;37.390;2022-12-24T04:57:38;2.98;81.55
72602;DHT22;60644;55.858;37.390;2022-12-24T05:00:05;2.96;81.55
72602;DHT22;60644;55.858;37.390;2022-12-24T05:02:31;2.93;81.67
72602;DHT22;60644;55.858;37.390;2022-12-24T05:04:57;2.95;81.60
72602;DHT22;60644;55.858;37.390;2022-12-24T05:07:23;2.95;81.71
72602;DHT22;60644;55.858;37.390;2022-12-24T05:09:48;2.94;81.75
72602;DHT22;60644;55.858;37.390;2022-12-24T05:12:14;2.93;81.82
72602;DHT22;60644;55.858;37.390;2022-12-24T05:14:40;2.91;81.94
72602;DHT22;60644;55.858;37.390;2022-12-24T05:17:06;2.96;81.97
72602;DHT22;60644;55.858;37.390;2022-12-24T05:19:32;2.99;81.79
72602;DHT22;60644;55.858;37.390;2022-12-24T05:21:58;2.98;81.85
72602;DHT22;60644;55.858;37.390;2022-12-24T05:24:42;3.02;81.81
72602;DHT22;60644;55.858;37.390;2022-12-24T05:27:29;3.06;81.72
72602;DHT22;60644;55.858;37.390;2022-12-24T05:29:54;3.09;81.61
72602;DHT22;60644;55.858;37.390;2022-12-24T05:32:20;3.14;81.59
72602;DHT22;60644;55.858;37.390;2022-12-24T05:34:46;3.21;81.54
72602;DHT22;60644;55.858;37.390;2022-12-24T05:37:12;3.23;81.50
72602;DHT22;60644;55.858;37.390;2022-12-24T05:39:38;3.18;81.42
72602;DHT22;60644;55.858;37.390;2022-12-24T05:42:03;3.12;81.59
72602;DHT22;60644;55.858;37.390;2022-12-24T05:44:29;3.12;81.65
72602;DHT22;60644;55.858;37.390;2022-12-24T05:46:55;3.10;81.70
72602;DHT22;60644;55.858;37.390;2022-12-24T05:49:21;3.12;81.73
72602;DHT22;60644;55.858;37.390;2022-12-24T05:51:47;3.15;81.68
72602;DHT22;60644;55.858;37.390;2022-12-24T05:54:12;3.15;81.72
72602;DHT22;60644;55.858;37.390;2022-12-24T05:56:38;3.10;81.78
72602;DHT22;60644;55.858;37.390;2022-12-24T05:59:04;3.13;81.75
72602;DHT22;60644;55.858;37.390;2022-12-24T06:01:30;3.14;81.70
72602;DHT22;60644;55.858;37.390;2022-12-24T06:03:56;3.12;81.74
72602;DHT22;60644;55.858;37.390;2022-12-24T06:06:24;3.11;81.72
72602;DHT22;60644;55.858;37.390;2022-12-24T06:08:51;3.06;81.77
72602;DHT22;60644;55.858;37.390;2022-12-24T06:11:19;3.10;81.82
72602;DHT22;60644;55.858;37.390;2022-12-24T06:13:45;3.12;81.84
72602;DHT22;60644;55.858;37.390;2022-12-24T06:16:13;3.04;82.06
72602;DHT22;60644;55.858;37.390;2022-12-24T06:18:40;3.10;81.95
72602;DHT22;60644;55.858;37.390;2022-12-24T06:21:07;3.10;82.07
72602;DHT22;60644;55.858;37.390;2022-12-24T06:23:35;3.13;82.10
72602;DHT22;60644;55.858;37.390;2022-12-24T06:26:02;3.06;82.23
72602;DHT22;60644;55.858;37.390;2022-12-24T06:28:30;3.04;82.29
72602;DHT22;60644;55.858;37.390;2022-12-24T06:30:56;3.01;82.41
72602;DHT22;60644;55.858;37.390;2022-12-24T06:33:22;2.98;82.48
72602;DHT22;60644;55.858;37.390;2022-12-24T06:35:48;2.94;82.86
72602;DHT22;60644;55.858;37.390;2022-12-24T06:38:15;2.93;82.94
72602;DHT22;60644;55.858;37.390;2022-12-24T06:40:42;2.94;82.89
72602;DHT22;60644;55.858;37.390;2022-12-24T06:43:08;2.94;83.02
72602;DHT22;60644;55.858;37.390;2022-12-24T06:45:34;2.90;83.13
72602;DHT22;60644;55.858;37.390;2022-12-24T06:48:00;2.93;83.02
72602;DHT22;60644;55.858;37.390;2022-12-24T06:50:26;2.94;83.04
72602;DHT22;60644;55.858;37.390;2022-12-24T06:52:53;2.97;83.04
72602;DHT22;60644;55.858;37.390;2022-12-24T06:55:19;2.98;83.03
72602;DHT22;60644;55.858;37.390;2022-12-24T06:57:44;2.95;83.04
72602;DHT22;60644;55.858;37.390;2022-12-24T07:00:11;2.99;82.95
72602;DHT22;60644;55.858;37.390;2022-12-24T07:02:43;3.03;82.82
72602;DHT22;60644;55.858;37.390;2022-12-24T07:05:11;3.09;82.62
72602;DHT22;60644;55.858;37.390;2022-12-24T07:07:38;3.11;82.43
72602;DHT22;60644;55.858;37.390;2022-12-24T07:10:06;3.11;82.42
72602;DHT22;60644;55.858;37.390;2022-12-24T07:12:32;3.11;82.33
72602;DHT22;60644;55.858;37.390;2022-12-24T07:14:58;3.14;82.23
72602;DHT22;60644;55.858;37.390;2022-12-24T07:17:24;3.14;82.09
72602;DHT22;60644;55.858;37.390;2022-12-24T07:19:50;3.14;82.21
72602;DHT22;60644;55.858;37.390;2022-12-24T07:22:16;3.14;82.28
72602;DHT22;60644;55.858;37.390;2022-12-24T07:24:42;3.14;82.27
72602;DHT22;60644;55.858;37.390;2022-12-24T07:27:07;3.09;82.46
72602;DHT22;60644;55.858;37.390;2022-12-24T07:29:33;3.06;82.44
72602;DHT22;60644;55.858;37.390;2022-12-24T07:32:00;3.06;82.54
72602;DHT22;60644;55.858;37.390;2022-12-24T07:34:26;3.05;82.48
72602;DHT22;60644;55.858;37.390;2022-12-24T07:36:51;3.04;82.36
72602;DHT22;60644;55.858;37.390;2022-12-24T07:39:17;3.02;82.41
72602;DHT22;60644;55.858;37.390;2022-12-24T07:41:43;3.04;82.39
72602;DHT22;60644;55.858;37.390;2022-12-24T07:44:13;3.02;82.43
72602;DHT22;60644;55.858;37.390;2022-12-24T07:46:39;3.06;82.33
72602;DHT22;60644;55.858;37.390;2022-12-24T07:49:05;3.08;82.17
72602;DHT22;60644;55.858;37.390;2022-12-24T07:51:31;3.06;82.13
72602;DHT22;60644;55.858;37.390;2022-12-24T07:53:57;3.10;82.14
72602;DHT22;60644;55.858;37.390;2022-12-24T07:56:22;3.11;82.06
72602;DHT22;60644;55.858;37.390;2022-12-24T07:58:51;3.10;81.94
72602;DHT22;60644;55.858;37.390;2022-12-24T08:01:18;3.01;81.72
72602;DHT22;60644;55.858;37.390;2022-12-24T08:03:44;2.97;81.78
72602;DHT22;60644;55.858;37.390;2022-12-24T08:06:10;2.91;81.68
72602;DHT22;60644;55.858;37.390;2022-12-24T08:08:37;2.90;81.81
72602;DHT22;60644;55.858;37.390;2022-12-24T08:11:05;2.85;81.81
72602;DHT22;60644;55.858;37.390;2022-12-24T08:13:32;2.85;81.79
72602;DHT22;60644;55.858;37.390;2022-12-24T08:15:58;2.85;81.90
72602;DHT22;60644;55.858;37.390;2022-12-24T08:18:24;2.85;81.97
72602;DHT22;60644;55.858;37.390;2022-12-24T08:20:50;2.86;82.03
72602;DHT22;60644;55.858;37.390;2022-12-24T08:23:16;2.83;82.04
72602;DHT22;60644;55.858;37.390;2022-12-24T08:25:44;2.80;82.16
72602;DHT22;60644;55.858;37.390;2022-12-24T08:28:11;2.76;82.13
72602;DHT22;60644;55.858;37.390;2022-12-24T08:30:37;2.74;82.20
72602;DHT22;60644;55.858;37.390;2022-12-24T08:33:03;2.73;82.23
72602;DHT22;60644;55.858;37.390;2022-12-24T08:35:29;2.78;82.18
72602;DHT22;60644;55.858;37.390;2022-12-24T08:37:55;2.79;82.16
72602;DHT22;60644;55.858;37.390;2022-12-24T08:40:21;2.75;82.14
72602;DHT22;60644;55.858;37.390;2022-12-24T08:42:47;2.74;82.13
72602;DHT22;60644;55.858;37.390;2022-12-24T08:45:13;2.71;82.23
72602;DHT22;60644;55.858;37.390;2022-12-24T08:47:39;2.72;82.22
72602;DHT22;60644;55.858;37.390;2022-12-24T08:50:06;2.70;82.18
72602;DHT22;60644;55.858;37.390;2022-12-24T08:52:32;2.69;82.21
72602;DHT22;60644;55.858;37.390;2022-12-24T08:54:58;2.64;82.30
72602;DHT22;60644;55.858;37.390;2022-12-24T08:57:24;2.68;82.29
72602;DHT22;60644;55.858;37.390;2022-12-24T08:59:49;2.71;82.28
72602;DHT22;60644;55.858;37.390;2022-12-24T09:02:15;2.72;82.37
72602;DHT22;60644;55.858;37.390;2022-12-24T09:04:41;2.73;82.38
72602;DHT22;60644;55.858;37.390;2022-12-24T09:07:08;2.74;82.35
72602;DHT22;60644;55.858;37.390;2022-12-24T09:09:35;2.74;82.30
72602;DHT22;60644;55.858;37.390;2022-12-24T09:12:03;2.76;82.49
72602;DHT22;60644;55.858;37.390;2022-12-24T09:14:29;2.79;82.58
72602;DHT22;60644;55.858;37.390;2022-12-24T09:16:55;2.79;82.87
72602;DHT22;60644;55.858;37.390;2022-12-24T09:19:21;2.83;82.85
72602;DHT22;60644;55.858;37.390;2022-12-24T09:21:46;2.89;82.85
72602;DHT22;60644;55.858;37.390;2022-12-24T09:24:12;2.89;82.94
72602;DHT22;60644;55.858;37.390;2022-12-24T09:26:39;2.91;83.06
72602;DHT22;60644;55.858;37.390;2022-12-24T09:29:06;2.93;83.18
72602;DHT22;60644;55.858;37.390;2022-12-24T09:31:32;2.91;83.21
72602;DHT22;60644;55.858;37.390;2022-12-24T09:33:58;2.87;83.23
72602;DHT22;60644;55.858;37.390;2022-12-24T09:36:24;2.89;83.27
72602;DHT22;60644;55.858;37.390;2022-12-24T09:38:50;2.91;83.36
72602;DHT22;60644;55.858;37.390;2022-12-24T09:41:42;2.93;83.38
72602;DHT22;60644;55.858;37.390;2022-12-24T09:46:54;2.83;83.21
72602;DHT22;60644;55.858;37.390;2022-12-24T09:49:24;2.78;83.19
72602;DHT22;60644;55.858;37.390;2022-12-24T09:52:03;2.78;83.25
72602;DHT22;60644;55.858;37.390;2022-12-24T09:57:36;2.75;83.36
72602;DHT22;60644;55.858;37.390;2022-12-24T10:00:15;2.78;83.44
72602;DHT22;60644;55.858;37.390;2022-12-24T10:02:42;2.74;83.42
72602;DHT22;60644;55.858;37.390;2022-12-24T10:05:13;2.74;83.41
72602;DHT22;60644;55.858;37.390;2022-12-24T10:08:09;2.74;83.42
72602;DHT22;60644;55.858;37.390;2022-12-24T10:24:36;2.43;83.52
72602;DHT22;60644;55.858;37.390;2022-12-24T10:27:14;2.45;83.52
72602;DHT22;60644;55.858;37.390;2022-12-24T10:29:48;2.53;83.59
72602;DHT22;60644;55.858;37.390;2022-12-24T10:32:25;2.56;83.61
72602;DHT22;60644;55.858;37.390;2022-12-24T10:37:25;2.61;83.88
72602;DHT22;60644;55.858;37.390;2022-12-24T10:39:54;2.61;83.87
72602;DHT22;60644;55.858;37.390;2022-12-24T10:42:21;2.66;83.96
72602;DHT22;60644;55.858;37.390;2022-12-24T10:44:54;2.70;83.81
72602;DHT22;60644;55.858;37.390;2022-12-24T10:47:21;2.70;83.73
72602;DHT22;60644;55.858;37.390;2022-12-24T10:49:53;2.67;83.61
72602;DHT22;60644;55.858;37.390;2022-12-24T10:52:26;2.67;83.78
72602;DHT22;60644;55.858;37.390;2022-12-24T10:55:23;2.62;83.61
72602;DHT22;60644;55.858;37.390;2022-12-24T10:58:03;2.60;83.58
72602;DHT22;60644;55.858;37.390;2022-12-24T11:00:30;2.64;83.58
72602;DHT22;60644;55.858;37.390;2022-12-24T11:03:23;2.64;83.49
72602;DHT22;60644;55.858;37.390;2022-12-24T11:06:03;2.54;83.00
72602;DHT22;60644;55.858;37.390;2022-12-24T11:08:29;2.45;83.22
72602;DHT22;60644;55.858;37.390;2022-12-24T11:10:59;2.41;83.52
72602;DHT22;60644;55.858;37.390;2022-12-24T11:13:29;2.43;83.69
72602;DHT22;60644;55.858;37.390;2022-12-24T11:16:29;2.44;83.65
72602;DHT22;60644;55.858;37.390;2022-12-24T11:19:18;2.39;83.61
72602;DHT22;60644;55.858;37.390;2022-12-24T11:21:44;2.38;83.84
72602;DHT22;60644;55.858;37.390;2022-12-24T11:24:26;2.41;83.74
72602;DHT22;60644;55.858;37.390;2022-12-24T11:26:53;2.39;83.73
72602;DHT22;60644;55.858;37.390;2022-12-24T11:29:24;2.45;83.84
72602;DHT22;60644;55.858;37.390;2022-12-24T11:31:52;2.43;83.85
72602;DHT22;60644;55.858;37.390;2022-12-24T11:34:34;2.51;83.94
72602;DHT22;60644;55.858;37.390;2022-12-24T11:37:19;2.55;83.74
72602;DHT22;60644;55.858;37.390;2022-12-24T11:39:59;2.59;83.81
72602;DHT22;60644;55.858;37.390;2022-12-24T11:44:51;2.60;83.30
72602;DHT22;60644;55.858;37.390;2022-12-24T11:47:37;2.61;83.36
72602;DHT22;60644;55.858;37.390;2022-12-24T11:55:50;2.60;83.29
72602;DHT22;60644;55.858;37.390;2022-12-24T12:01:18;2.60;83.06
72602;DHT22;60644;55.858;37.390;2022-12-24T12:03:48;2.61;83.09
72602;DHT22;60644;55.858;37.390;2022-12-24T12:08:55;2.71;83.30
72602;DHT22;60644;55.858;37.390;2022-12-24T12:11:22;2.75;83.24
72602;DHT22;60644;55.858;37.390;2022-12-24T12:13:51;2.78;82.97
72602;DHT22;60644;55.858;37.390;2022-12-24T12:18:58;2.71;82.82
72602;DHT22;60644;55.858;37.390;2022-12-24T12:21:41;2.78;82.88
72602;DHT22;60644;55.858;37.390;2022-12-24T12:24:21;2.79;82.80
72602;DHT22;60644;55.858;37.390;2022-12-24T12:27:03;2.74;82.47
72602;DHT22;60644;55.858;37.390;2022-12-24T12:29:34;2.75;82.71
72602;DHT22;60644;55.858;37.390;2022-12-24T12:32:12;2.81;82.88
72602;DHT22;60644;55.858;37.390;2022-12-24T12:35:44;2.81;82.78
72602;DHT22;60644;55.858;37.390;2022-12-24T12:37:59;2.84;82.62
72602;DHT22;60644;55.858;37.390;2022-12-24T12:46:19;2.78;82.65
72602;DHT22;60644;55.858;37.390;2022-12-24T12:51:24;2.78;82.65
72602;DHT22;60644;55.858;37.390;2022-12-24T12:54:36;2.80;82.65
72602;DHT22;60644;55.858;37.390;2022-12-24T12:57:05;2.82;82.56
72602;DHT22;60644;55.858;37.390;2022-12-24T12:59:34;2.81;82.57
72602;DHT22;60644;55.858;37.390;2022-12-24T13:21:01;3.01;82.34
72602;DHT22;60644;55.858;37.390;2022-12-24T13:23:27;2.91;81.49
72602;DHT22;60644;55.858;37.390;2022-12-24T13:25:55;2.87;81.93
72602;DHT22;60644;55.858;37.390;2022-12-24T13:30:53;3.00;82.19
72602;DHT22;60644;55.858;37.390;2022-12-24T13:38:43;2.87;82.18
72602;DHT22;60644;55.858;37.390;2022-12-24T13:49:21;3.06;82.33
72602;DHT22;60644;55.858;37.390;2022-12-24T13:51:50;2.97;81.37
72602;DHT22;60644;55.858;37.390;2022-12-24T13:54:24;3.03;82.01
72602;DHT22;60644;55.858;37.390;2022-12-24T13:56:53;3.12;82.21
72602;DHT22;60644;55.858;37.390;2022-12-24T13:59:26;3.19;82.33
72602;DHT22;60644;55.858;37.390;2022-12-24T14:01:58;3.25;82.29
72602;DHT22;60644;55.858;37.390;2022-12-24T14:04:34;3.30;82.32
72602;DHT22;60644;55.858;37.390;2022-12-24T14:07:02;3.33;82.36
72602;DHT22;60644;55.858;37.390;2022-12-24T14:09:30;3.30;81.77
72602;DHT22;60644;55.858;37.390;2022-12-24T14:14:31;3.31;82.17
72602;DHT22;60644;55.858;37.390;2022-12-24T14:16:59;3.31;82.01
72602;DHT22;60644;55.858;37.390;2022-12-24T14:22:26;3.31;81.54
72602;DHT22;60644;55.858;37.390;2022-12-24T14:25:00;3.31;81.47
72602;DHT22;60644;55.858;37.390;2022-12-24T14:27:43;3.33;81.98
72602;DHT22;60644;55.858;37.390;2022-12-24T14:30:26;3.36;82.04
72602;DHT22;60644;55.858;37.390;2022-12-24T14:32:53;3.39;82.07
72602;DHT22;60644;55.858;37.390;2022-12-24T14:37:59;3.31;81.79
72602;DHT22;60644;55.858;37.390;2022-12-24T14:40:28;3.35;81.96
72602;DHT22;60644;55.858;37.390;2022-12-24T14:45:55;3.39;82.01
72602;DHT22;60644;55.858;37.390;2022-12-24T14:54:17;3.41;82.07
72602;DHT22;60644;55.858;37.390;2022-12-24T15:05:28;3.43;82.06
72602;DHT22;60644;55.858;37.390;2022-12-24T15:08:03;3.43;82.06
72602;DHT22;60644;55.858;37.390;2022-12-24T15:10:53;3.41;81.88
72602;DHT22;60644;55.858;37.390;2022-12-24T15:15:47;3.41;81.76
72602;DHT22;60644;55.858;37.390;2022-12-24T15:18:17;3.44;82.06
72602;DHT22;60644;55.858;37.390;2022-12-24T15:20:46;3.46;81.90
72602;DHT22;60644;55.858;37.390;2022-12-24T15:23:20;3.47;81.98
72602;DHT22;60644;55.858;37.390;2022-12-24T15:25:47;3.48;82.01
72602;DHT22;60644;55.858;37.390;2022-12-24T15:28:19;3.52;82.11
72602;DHT22;60644;55.858;37.390;2022-12-24T15:30:47;3.56;82.21
72602;DHT22;60644;55.858;37.390;2022-12-24T15:33:13;3.56;82.20
72602;DHT22;60644;55.858;37.390;2022-12-24T15:35:52;3.57;81.22
72602;DHT22;60644;55.858;37.390;2022-12-24T15:38:31;3.58;81.82
72602;DHT22;60644;55.858;37.390;2022-12-24T15:41:00;3.57;81.91
72602;DHT22;60644;55.858;37.390;2022-12-24T15:43:29;3.60;82.07
72602;DHT22;60644;55.858;37.390;2022-12-24T15:45:56;3.62;82.17
72602;DHT22;60644;55.858;37.390;2022-12-24T15:48:25;3.63;81.46
72602;DHT22;60644;55.858;37.390;2022-12-24T15:50:56;3.61;81.75
72602;DHT22;60644;55.858;37.390;2022-12-24T15:53:28;3.60;81.73
72602;DHT22;60644;55.858;37.390;2022-12-24T15:58:35;3.61;82.03
72602;DHT22;60644;55.858;37.390;2022-12-24T16:01:05;3.62;81.66
72602;DHT22;60644;55.858;37.390;2022-12-24T16:03:32;3.63;81.71
72602;DHT22;60644;55.858;37.390;2022-12-24T16:06:06;3.64;81.83
72602;DHT22;60644;55.858;37.390;2022-12-24T16:08:37;3.68;81.84
72602;DHT22;60644;55.858;37.390;2022-12-24T16:13:32;3.60;81.33
72602;DHT22;60644;55.858;37.390;2022-12-24T16:16:03;3.64;81.47
72602;DHT22;60644;55.858;37.390;2022-12-24T16:18:35;3.69;81.46
72602;DHT22;60644;55.858;37.390;2022-12-24T16:21:04;3.69;81.27
72602;DHT22;60644;55.858;37.390;2022-12-24T16:23:38;3.65;80.90
72602;DHT22;60644;55.858;37.390;2022-12-24T16:26:10;3.64;80.51
72602;DHT22;60644;55.858;37.390;2022-12-24T16:28:36;3.68;80.85
72602;DHT22;60644;55.858;37.390;2022-12-24T16:31:02;3.71;80.77
72602;DHT22;60644;55.858;37.390;2022-12-24T16:33:28;3.74;80.75
72602;DHT22;60644;55.858;37.390;2022-12-24T16:35:54;3.74;80.14
72602;DHT22;60644;55.858;37.390;2022-12-24T16:38:20;3.71;79.81
72602;DHT22;60644;55.858;37.390;2022-12-24T16:40:46;3.68;79.98
72602;DHT22;60644;55.858;37.390;2022-12-24T16:43:12;3.67;79.14
72602;DHT22;60644;55.858;37.390;2022-12-24T16:46:02;3.60;78.69
72602;DHT22;60644;55.858;37.390;2022-12-24T16:48:29;3.59;78.85
72602;DHT22;60644;55.858;37.390;2022-12-24T16:50:55;3.60;78.75
72602;DHT22;60644;55.858;37.390;2022-12-24T16:53:21;3.57;78.72
72602;DHT22;60644;55.858;37.390;2022-12-24T16:55:48;3.60;78.75
72602;DHT22;60644;55.858;37.390;2022-12-24T16:58:16;3.55;78.14
72602;DHT22;60644;55.858;37.390;2022-12-24T17:00:43;3.42;75.29
72602;DHT22;60644;55.858;37.390;2022-12-24T17:03:10;3.45;77.66
72602;DHT22;60644;55.858;37.390;2022-12-24T17:05:40;3.39;76.62
72602;DHT22;60644;55.858;37.390;2022-12-24T17:08:07;3.32;76.76
72602;DHT22;60644;55.858;37.390;2022-12-24T17:10:33;3.36;77.53
72602;DHT22;60644;55.858;37.390;2022-12-24T17:13:00;3.39;77.53
72602;DHT22;60644;55.858;37.390;2022-12-24T17:15:26;3.43;77.23
72602;DHT22;60644;55.858;37.390;2022-12-24T17:17:52;3.45;77.24
72602;DHT22;60644;55.858;37.390;2022-12-24T17:20:18;3.46;77.47
72602;DHT22;60644;55.858;37.390;2022-12-24T17:22:44;3.54;77.86
72602;DHT22;60644;55.858;37.390;2022-12-24T17:25:11;3.57;77.78
72602;DHT22;60644;55.858;37.390;2022-12-24T17:27:38;3.60;77.70
72602;DHT22;60644;55.858;37.390;2022-12-24T17:30:05;3.62;77.76
72602;DHT22;60644;55.858;37.390;2022-12-24T17:32:32;3.62;76.63
72602;DHT22;60644;55.858;37.390;2022-12-24T17:34:58;3.63;77.66
72602;DHT22;60644;55.858;37.390;2022-12-24T17:37:25;3.68;77.86
72602;DHT22;60644;55.858;37.390;2022-12-24T17:39:51;3.65;77.17
72602;DHT22;60644;55.858;37.390;2022-12-24T17:42:17;3.68;77.67
72602;DHT22;60644;55.858;37.390;2022-12-24T17:44:43;3.68;77.85
72602;DHT22;60644;55.858;37.390;2022-12-24T17:47:09;3.65;77.87
72602;DHT22;60644;55.858;37.390;2022-12-24T17:49:35;3.65;77.83
72602;DHT22;60644;55.858;37.390;2022-12-24T17:52:01;3.60;76.67
72602;DHT22;60644;55.858;37.390;2022-12-24T17:54:29;3.60;77.27
72602;DHT22;60644;55.858;37.390;2022-12-24T17:56:55;3.61;77.13
72602;DHT22;60644;55.858;37.390;2022-12-24T17:59:23;3.59;77.10
72602;DHT22;60644;55.858;37.390;2022-12-24T18:01:49;3.56;76.82
72602;DHT22;60644;55.858;37.390;2022-12-24T18:04:15;3.42;74.62